Time;durP1;ratioP1;P1;durP2;ratioP2;P2;SDS_P1;SDS_P2;PMS_P1;PMS_P2;Temp;Humidity;BMP_temperature;BMP_pressure;BME280_temperature;BME280_humidity;BME280_pressure;Samples;Min_cycle;Max_cycle;Signal;HPM_P1;HPM_P2
2022/02/08 00:01:35;;;;;;;8.30;3.40;;;;;;;;;;4957556;28;20629;-74
2022/02/08 00:04:03;;;;;;;18.20;7.67;;;;;;;;;;4957983;28;20222;-75
2022/02/08 00:06:47;;;;;;;9.40;3.43;;;;;;;;;;4939557;29;20231;-75
2022/02/08 00:09:14;;;;;;;9.47;3.10;;;;;;;;;;4959867;28;20229;-75
2022/02/08 00:11:40;;;;;;;8.47;2.27;;;;;;;;;;4960291;28;20442;-74
2022/02/08 00:14:06;;;;;;;7.23;2.10;;;;;;;;;;4956224;28;20236;-74
2022/02/08 00:16:33;;;;;;;4.97;1.87;;;;;;;;;;4972889;28;20700;-74
2022/02/08 00:18:59;;;;;;;6.90;2.30;;;;;;;;;;4972754;28;20226;-74
2022/02/08 00:21:27;;;;;;;8.37;2.40;;;;;;;;;;4971969;28;20229;-74
2022/02/08 00:23:58;;;;;;;6.63;2.40;;;;;;;;;;4956148;28;20222;-74
2022/02/08 00:26:24;;;;;;;9.70;2.50;;;;;;;;;;4972849;28;20637;-74
2022/02/08 00:28:57;;;;;;;7.23;2.07;;;;;;;;;;4956681;28;20222;-74
2022/02/08 00:31:23;;;;;;;4.97;2.27;;;;;;;;;;4972298;28;20253;-74
2022/02/08 00:33:51;;;;;;;10.67;1.90;;;;;;;;;;4987933;28;20226;-74
2022/02/08 00:36:17;;;;;;;8.20;2.47;;;;;;;;;;4953239;28;20236;-75
2022/02/08 00:38:42;;;;;;;8.30;2.33;;;;;;;;;;4964177;28;20225;-74
2022/02/08 00:41:10;;;;;;;8.93;2.30;;;;;;;;;;4944705;28;20374;-74
2022/02/08 00:43:49;;;;;;;6.47;2.20;;;;;;;;;;4955420;28;20605;-74
2022/02/08 00:46:26;;;;;;;10.57;2.63;;;;;;;;;;4966831;28;20222;-74
2022/02/08 00:48:59;;;;;;;7.13;2.37;;;;;;;;;;4973765;28;20222;-74
2022/02/08 00:51:30;;;;;;;7.53;1.93;;;;;;;;;;4949200;28;20241;-75
2022/02/08 00:53:58;;;;;;;8.43;2.60;;;;;;;;;;4972488;28;20285;-74
2022/02/08 00:56:24;;;;;;;9.50;2.50;;;;;;;;;;4987786;28;20297;-74
2022/02/08 00:58:52;;;;;;;6.70;2.20;;;;;;;;;;4955995;28;20281;-75
2022/02/08 01:01:22;;;;;;;7.90;2.17;;;;;;;;;;4970800;28;20766;-74
2022/02/08 01:03:50;;;;;;;7.97;2.57;;;;;;;;;;4956410;28;20225;-74
2022/02/08 01:06:16;;;;;;;13.27;2.97;;;;;;;;;;4942409;28;20218;-75
2022/02/08 01:08:42;;;;;;;11.83;2.80;;;;;;;;;;4972165;28;20606;-75
2022/02/08 01:11:09;;;;;;;8.67;2.10;;;;;;;;;;4972647;28;20225;-74
2022/02/08 01:13:37;;;;;;;8.83;2.77;;;;;;;;;;4971997;28;20313;-74
2022/02/08 01:16:07;;;;;;;7.43;2.07;;;;;;;;;;4957684;28;20237;-74
2022/02/08 01:18:39;;;;;;;6.50;2.20;;;;;;;;;;4980385;28;20237;-75
2022/02/08 01:21:05;;;;;;;7.00;2.60;;;;;;;;;;4982543;28;20284;-75
2022/02/08 01:23:33;;;;;;;7.23;2.90;;;;;;;;;;4996999;28;20226;-75
2022/02/08 01:26:10;;;;;;;9.53;3.03;;;;;;;;;;4982865;28;20241;-74
2022/02/08 01:28:45;;;;;;;6.57;2.20;;;;;;;;;;4983107;28;20244;-75
2022/02/08 01:31:16;;;;;;;8.63;2.80;;;;;;;;;;4969310;28;20222;-74
2022/02/08 01:34:23;;;;;;;7.67;2.60;;;;;;;;;;4973779;28;20253;-75
2022/02/08 01:37:03;;;;;;;9.73;2.60;;;;;;;;;;4968227;28;20221;-75
2022/02/08 01:39:51;;;;;;;10.97;3.03;;;;;;;;;;4955347;28;20286;-74
2022/02/08 01:42:30;;;;;;;9.73;2.67;;;;;;;;;;4949343;28;20265;-73
2022/02/08 01:47:41;;;;;;;9.17;2.70;;;;;;;;;;4970377;28;20226;-74
2022/02/08 01:50:11;;;;;;;8.50;2.77;;;;;;;;;;4973065;28;20773;-72
2022/02/08 01:52:40;;;;;;;11.63;3.27;;;;;;;;;;4968270;28;20248;-72
2022/02/08 01:55:11;;;;;;;9.83;2.67;;;;;;;;;;4966435;28;20222;-73
2022/02/08 01:57:38;;;;;;;9.40;2.80;;;;;;;;;;4963382;28;20225;-73
2022/02/08 02:00:08;;;;;;;8.23;2.30;;;;;;;;;;4938349;28;20221;-72
2022/02/08 02:02:38;;;;;;;9.57;2.80;;;;;;;;;;4967273;28;20222;-73
2022/02/08 02:05:08;;;;;;;8.77;2.50;;;;;;;;;;4954769;28;20606;-73
2022/02/08 02:07:34;;;;;;;7.83;2.90;;;;;;;;;;4967587;28;20350;-73
2022/02/08 02:10:04;;;;;;;10.97;3.33;;;;;;;;;;4955511;28;20297;-73
2022/02/08 02:12:35;;;;;;;7.67;2.50;;;;;;;;;;4954696;28;20719;-73
2022/02/08 02:15:04;;;;;;;7.73;2.40;;;;;;;;;;4971117;28;20214;-73
2022/02/08 02:17:34;;;;;;;8.50;3.57;;;;;;;;;;4952260;28;20215;-73
2022/02/08 02:20:02;;;;;;;10.20;3.07;;;;;;;;;;4951554;28;20277;-73
2022/02/08 02:22:27;;;;;;;8.73;2.80;;;;;;;;;;4957826;28;20230;-73
2022/02/08 02:24:53;;;;;;;10.13;3.43;;;;;;;;;;4955408;28;20301;-73
2022/02/08 02:27:18;;;;;;;9.33;3.10;;;;;;;;;;4970797;28;20219;-74
2022/02/08 02:29:49;;;;;;;11.27;3.27;;;;;;;;;;4956948;28;20226;-75
2022/02/08 02:32:15;;;;;;;10.03;3.30;;;;;;;;;;4959619;28;20225;-75
2022/02/08 02:34:48;;;;;;;7.77;3.57;;;;;;;;;;4947391;28;20318;-74
2022/02/08 02:37:17;;;;;;;10.40;3.60;;;;;;;;;;4935315;28;20236;-73
2022/02/08 02:39:45;;;;;;;7.47;3.43;;;;;;;;;;4958571;28;20688;-74
2022/02/08 02:42:14;;;;;;;7.40;3.30;;;;;;;;;;4958323;28;20603;-74
2022/02/08 02:44:43;;;;;;;15.30;4.23;;;;;;;;;;4974731;28;20308;-74
2022/02/08 02:47:13;;;;;;;8.53;3.57;;;;;;;;;;4958002;28;20214;-75
2022/02/08 02:49:38;;;;;;;14.70;4.20;;;;;;;;;;4958569;28;20296;-74
2022/02/08 02:52:09;;;;;;;10.17;4.50;;;;;;;;;;4957778;28;20234;-74
2022/02/08 02:54:40;;;;;;;13.40;4.70;;;;;;;;;;4943275;28;20215;-74
2022/02/08 02:57:11;;;;;;;11.17;4.40;;;;;;;;;;4923160;28;20223;-74
2022/02/08 02:59:38;;;;;;;12.80;4.97;;;;;;;;;;4974297;28;20222;-73
2022/02/08 03:05:04;;;;;;;12.07;5.33;;;;;;;;;;4955107;28;20233;-74
2022/02/08 03:20:55;;;;;;;12.20;6.53;;;;;;;;;;4939019;29;20227;-74
2022/02/08 03:23:21;;;;;;;15.50;7.13;;;;;;;;;;4954502;28;20226;-74
2022/02/08 03:25:54;;;;;;;16.37;7.17;;;;;;;;;;4939605;29;20688;-74
2022/02/08 03:28:30;;;;;;;15.43;7.53;;;;;;;;;;4957529;28;20229;-74
2022/02/08 03:30:56;;;;;;;16.87;7.50;;;;;;;;;;4957599;28;20232;-73
2022/02/08 03:33:26;;;;;;;17.77;7.53;;;;;;;;;;4957082;28;20661;-74
2022/02/08 03:35:56;;;;;;;13.83;6.87;;;;;;;;;;4973874;28;20261;-75
2022/02/08 03:38:39;;;;;;;16.77;8.43;;;;;;;;;;4926825;28;20692;-76
2022/02/08 03:41:10;;;;;;;18.40;7.87;;;;;;;;;;4925750;28;20234;-74
2022/02/08 03:43:41;;;;;;;14.07;7.80;;;;;;;;;;4943229;28;20288;-73
2022/02/08 03:46:12;;;;;;;17.77;8.73;;;;;;;;;;4988939;28;20285;-73
2022/02/08 03:48:39;;;;;;;20.13;8.97;;;;;;;;;;4957725;28;20218;-74
2022/02/08 03:51:10;;;;;;;18.60;8.93;;;;;;;;;;4972591;28;20939;-72
2022/02/08 03:53:43;;;;;;;14.23;9.03;;;;;;;;;;4959303;28;20217;-73
2022/02/08 03:56:14;;;;;;;18.77;9.70;;;;;;;;;;4972722;28;20297;-73
2022/02/08 03:58:42;;;;;;;18.60;9.93;;;;;;;;;;4957496;28;20214;-73
2022/02/08 04:01:48;;;;;;;17.83;10.20;;;;;;;;;;4972692;28;20233;-74
2022/02/08 04:05:15;;;;;;;19.43;10.50;;;;;;;;;;4973060;28;20305;-74
2022/02/08 04:07:32;;;;;;;20.70;10.97;;;;;;;;;;4965475;28;20238;-73
2022/02/08 04:09:52;;;;;;;16.80;11.43;;;;;;;;;;4966187;28;20229;-73
2022/02/08 04:12:28;;;;;;;18.80;11.03;;;;;;;;;;4971903;28;20265;-73
2022/02/08 04:15:12;;;;;;;19.93;11.30;;;;;;;;;;4973116;28;20783;-74
2022/02/08 04:18:08;;;;;;;20.27;13.13;;;;;;;;;;4973363;28;20226;-74
2022/02/08 04:44:33;;;;;;;21.17;13.73;;;;;;;;;;4972676;28;20289;-74
2022/02/08 04:47:09;;;;;;;22.37;13.63;;;;;;;;;;4971751;28;20242;-75
2022/02/08 04:49:37;;;;;;;23.77;14.33;;;;;;;;;;4973149;28;20322;-74
2022/02/08 04:52:04;;;;;;;22.17;14.37;;;;;;;;;;4971055;28;20226;-73
2022/02/08 04:54:43;;;;;;;21.27;12.90;;;;;;;;;;4972084;28;20230;-72
2022/02/08 04:57:30;;;;;;;20.00;13.63;;;;;;;;;;4973941;28;20308;-73
2022/02/08 05:00:23;;;;;;;20.77;13.47;;;;;;;;;;4967519;28;20218;-72
2022/02/08 05:35:30;;;;;;;20.60;14.10;;;;;;;;;;4961196;28;20222;-72
2022/02/08 05:43:23;;;;;;;22.33;17.23;;;;;;;;;;4970721;28;20248;-74
2022/02/08 05:48:24;;;;;;;26.03;18.60;;;;;;;;;;4970234;28;20230;-73
2022/02/08 05:53:45;;;;;;;26.30;19.03;;;;;;;;;;4971342;28;20262;-73
2022/02/08 05:56:16;;;;;;;29.50;19.70;;;;;;;;;;4954647;28;20914;-73
2022/02/08 05:58:46;;;;;;;26.30;19.50;;;;;;;;;;4965926;28;20233;-72
2022/02/08 06:01:12;;;;;;;31.23;21.30;;;;;;;;;;4972858;28;20709;-73
2022/02/08 06:03:59;;;;;;;31.17;20.77;;;;;;;;;;4969719;28;20225;-74
2022/02/08 06:06:30;;;;;;;29.07;18.83;;;;;;;;;;4957210;28;20783;-73
2022/02/08 06:08:55;;;;;;;34.43;22.27;;;;;;;;;;4959304;28;20611;-74
2022/02/08 06:11:23;;;;;;;35.63;22.80;;;;;;;;;;4974516;28;20256;-73
2022/02/08 06:13:51;;;;;;;35.33;22.77;;;;;;;;;;4974969;28;20257;-74
2022/02/08 06:16:24;;;;;;;36.10;23.67;;;;;;;;;;4944892;28;20233;-74
2022/02/08 06:18:50;;;;;;;33.20;23.33;;;;;;;;;;4973974;28;21442;-72
2022/02/08 06:21:20;;;;;;;35.67;23.00;;;;;;;;;;4974702;28;20252;-72
2022/02/08 06:23:48;;;;;;;36.63;22.80;;;;;;;;;;4974577;28;20252;-72
2022/02/08 06:26:18;;;;;;;30.73;23.03;;;;;;;;;;4958593;28;20230;-74
2022/02/08 06:28:45;;;;;;;37.07;23.40;;;;;;;;;;4972327;28;20220;-72
2022/02/08 06:31:11;;;;;;;35.27;22.93;;;;;;;;;;4960036;28;20230;-74
2022/02/08 06:33:37;;;;;;;37.93;24.37;;;;;;;;;;4974153;28;20376;-73
2022/02/08 06:36:02;;;;;;;33.50;22.97;;;;;;;;;;4950753;28;20735;-73
2022/02/08 06:38:28;;;;;;;40.73;26.07;;;;;;;;;;4974021;28;20615;-74
2022/02/08 06:40:55;;;;;;;34.03;22.27;;;;;;;;;;4975231;28;20232;-74
2022/02/08 06:43:28;;;;;;;41.83;25.60;;;;;;;;;;4953123;28;20226;-73
2022/02/08 06:45:56;;;;;;;42.97;25.37;;;;;;;;;;4955363;28;20721;-72
2022/02/08 06:48:21;;;;;;;41.03;27.80;;;;;;;;;;4972785;28;20751;-72
2022/02/08 06:50:47;;;;;;;46.17;26.37;;;;;;;;;;4973860;28;20292;-73
2022/02/08 06:53:18;;;;;;;39.13;25.30;;;;;;;;;;4939459;28;20235;-72
2022/02/08 06:55:46;;;;;;;41.73;25.03;;;;;;;;;;4955336;28;20230;-72
2022/02/08 06:58:16;;;;;;;41.83;25.70;;;;;;;;;;4951733;28;20226;-72
2022/02/08 07:00:46;;;;;;;43.00;25.87;;;;;;;;;;4943422;28;20233;-73
2022/02/08 07:03:15;;;;;;;43.33;27.70;;;;;;;;;;4955107;28;20696;-72
2022/02/08 07:05:43;;;;;;;42.70;26.57;;;;;;;;;;4958268;28;20362;-73
2022/02/08 07:08:09;;;;;;;50.47;28.80;;;;;;;;;;4970290;28;20226;-74
2022/02/08 07:10:39;;;;;;;43.70;26.77;;;;;;;;;;4974647;28;20776;-73
2022/02/08 07:13:07;;;;;;;41.10;24.77;;;;;;;;;;4938695;28;20254;-74
2022/02/08 07:15:35;;;;;;;43.00;26.97;;;;;;;;;;4974020;28;20218;-74
2022/02/08 07:18:07;;;;;;;42.00;25.73;;;;;;;;;;4957933;28;20222;-73
2022/02/08 07:20:34;;;;;;;41.67;25.27;;;;;;;;;;4956629;28;20760;-73
2022/02/08 07:23:06;;;;;;;45.40;28.00;;;;;;;;;;4962281;28;20230;-74
2022/02/08 07:25:32;;;;;;;42.60;26.60;;;;;;;;;;4973954;28;20241;-73
2022/02/08 07:27:57;;;;;;;40.37;25.53;;;;;;;;;;4938598;28;20223;-74
2022/02/08 07:30:23;;;;;;;40.20;24.33;;;;;;;;;;4921962;28;20227;-73
2022/02/08 07:32:54;;;;;;;48.37;26.83;;;;;;;;;;4962407;28;20252;-74
2022/02/08 07:35:43;;;;;;;47.20;27.27;;;;;;;;;;4945960;28;20214;-74
2022/02/08 07:38:12;;;;;;;45.57;26.77;;;;;;;;;;4972838;28;20272;-74
2022/02/08 07:43:15;;;;;;;48.23;28.80;;;;;;;;;;4966861;28;20712;-75
2022/02/08 07:46:00;;;;;;;44.57;26.53;;;;;;;;;;4940523;29;20237;-74
2022/02/08 07:48:27;;;;;;;52.30;28.53;;;;;;;;;;4949273;28;20312;-74
2022/02/08 07:50:54;;;;;;;48.13;30.20;;;;;;;;;;4954094;28;20316;-73
2022/02/08 07:53:20;;;;;;;47.97;28.57;;;;;;;;;;4974298;28;20217;-74
2022/02/08 07:55:45;;;;;;;50.97;29.43;;;;;;;;;;4993214;28;20320;-74
2022/02/08 07:58:11;;;;;;;51.70;32.40;;;;;;;;;;4951123;28;20297;-74
2022/02/08 08:00:37;;;;;;;48.53;29.20;;;;;;;;;;4950431;29;20245;-74
2022/02/08 08:03:07;;;;;;;49.23;29.83;;;;;;;;;;4971847;28;20277;-73
2022/02/08 08:05:33;;;;;;;45.93;28.37;;;;;;;;;;4952933;28;20230;-73
2022/02/08 08:07:58;;;;;;;48.03;29.57;;;;;;;;;;4938002;28;20211;-74
2022/02/08 08:10:31;;;;;;;43.33;28.07;;;;;;;;;;4989216;28;20226;-74
2022/02/08 08:13:02;;;;;;;45.00;27.63;;;;;;;;;;4974151;28;20236;-74
2022/02/08 08:18:02;;;;;;;43.70;26.97;;;;;;;;;;4972536;28;20229;-72
2022/02/08 08:20:30;;;;;;;45.73;26.67;;;;;;;;;;4956551;28;20226;-72
2022/02/08 08:22:56;;;;;;;42.30;26.13;;;;;;;;;;4969538;28;20218;-73
2022/02/08 08:25:21;;;;;;;41.63;26.67;;;;;;;;;;4971027;28;20630;-73
2022/02/08 08:27:49;;;;;;;38.93;25.53;;;;;;;;;;4957239;28;20245;-74
2022/02/08 08:30:15;;;;;;;42.33;25.10;;;;;;;;;;4972800;28;20293;-72
2022/02/08 08:32:42;;;;;;;34.80;24.67;;;;;;;;;;4956389;28;20708;-72
2022/02/08 08:35:11;;;;;;;38.73;25.50;;;;;;;;;;4961200;28;20233;-73
2022/02/08 08:37:42;;;;;;;39.60;25.23;;;;;;;;;;4964150;28;20236;-73
2022/02/08 08:40:18;;;;;;;38.27;24.60;;;;;;;;;;4956757;28;20692;-73
2022/02/08 08:42:59;;;;;;;35.03;23.70;;;;;;;;;;4958050;28;20218;-73
2022/02/08 08:51:18;;;;;;;33.90;22.73;;;;;;;;;;4972587;28;20234;-73
2022/02/08 08:53:44;;;;;;;33.67;22.93;;;;;;;;;;4974876;28;20241;-73
2022/02/08 08:56:14;;;;;;;32.90;23.13;;;;;;;;;;4957379;28;20285;-73
2022/02/08 08:58:44;;;;;;;33.27;22.70;;;;;;;;;;4973206;28;20210;-73
2022/02/08 09:01:14;;;;;;;31.90;23.03;;;;;;;;;;4970629;28;20228;-73
2022/02/08 09:03:45;;;;;;;35.90;23.27;;;;;;;;;;4972603;28;20264;-74
2022/02/08 09:06:12;;;;;;;39.90;23.90;;;;;;;;;;4948034;28;20227;-73
2022/02/08 09:08:41;;;;;;;36.67;22.77;;;;;;;;;;4972871;28;20322;-73
2022/02/08 09:13:47;;;;;;;32.47;22.50;;;;;;;;;;4973292;28;20280;-73
2022/02/08 09:16:28;;;;;;;29.73;21.63;;;;;;;;;;4973724;28;20237;-73
2022/02/08 09:21:58;;;;;;;31.70;22.60;;;;;;;;;;4974751;28;20314;-75
2022/02/08 09:29:50;;;;;;;31.07;20.17;;;;;;;;;;4973359;28;20273;-72
2022/02/08 09:34:44;;;;;;;32.67;20.97;;;;;;;;;;4956353;28;20232;-73
2022/02/08 09:37:16;;;;;;;32.77;21.20;;;;;;;;;;4959237;28;20209;-74
2022/02/08 09:39:45;;;;;;;30.07;21.43;;;;;;;;;;4958969;28;20218;-73
2022/02/08 09:42:15;;;;;;;32.63;20.87;;;;;;;;;;4939448;28;20280;-73
2022/02/08 09:44:41;;;;;;;29.77;20.93;;;;;;;;;;4972236;28;20313;-72
2022/02/08 09:47:13;;;;;;;31.53;21.20;;;;;;;;;;4965922;28;20309;-74
2022/02/08 09:49:50;;;;;;;24.67;20.67;;;;;;;;;;4964578;28;20227;-73
2022/02/08 09:52:22;;;;;;;29.57;21.50;;;;;;;;;;4939881;28;20222;-73
2022/02/08 09:54:52;;;;;;;33.37;20.67;;;;;;;;;;4964267;28;20692;-73
2022/02/08 09:57:18;;;;;;;27.97;20.03;;;;;;;;;;4969384;28;20222;-74
2022/02/08 09:59:44;;;;;;;32.10;22.83;;;;;;;;;;4966567;28;20638;-74
2022/02/08 10:02:09;;;;;;;28.73;20.07;;;;;;;;;;4965386;28;20230;-72
2022/02/08 10:04:39;;;;;;;28.77;20.50;;;;;;;;;;4968317;28;20229;-73
2022/02/08 10:07:17;;;;;;;28.27;19.77;;;;;;;;;;4952693;28;20226;-76
2022/02/08 10:09:42;;;;;;;27.67;20.30;;;;;;;;;;4972767;28;20226;-74
2022/02/08 10:12:17;;;;;;;28.13;20.27;;;;;;;;;;4971888;28;20230;-73
2022/02/08 10:22:31;;;;;;;29.63;20.17;;;;;;;;;;4947263;28;20218;-74
2022/02/08 10:25:03;;;;;;;27.70;19.40;;;;;;;;;;4958709;28;20238;-75
2022/02/08 10:27:35;;;;;;;32.43;20.13;;;;;;;;;;4970752;28;20739;-73
2022/02/08 10:38:39;;;;;;;23.57;17.23;;;;;;;;;;4961069;28;20697;-73
2022/02/08 10:41:17;;;;;;;23.43;16.47;;;;;;;;;;4967708;28;20242;-73
2022/02/08 10:43:43;;;;;;;26.00;17.33;;;;;;;;;;4971210;28;20288;-74
2022/02/08 10:46:20;;;;;;;26.07;18.27;;;;;;;;;;4967854;28;20314;-73
2022/02/08 10:48:46;;;;;;;24.43;17.03;;;;;;;;;;4951338;28;20655;-73
2022/02/08 10:51:16;;;;;;;29.93;17.90;;;;;;;;;;4957529;28;20621;-73
2022/02/08 10:53:56;;;;;;;26.73;17.20;;;;;;;;;;4974610;28;20277;-72
2022/02/08 10:56:28;;;;;;;30.47;18.27;;;;;;;;;;4957774;28;20788;-72
2022/02/08 10:59:12;;;;;;;22.37;16.93;;;;;;;;;;4984986;28;20221;-72
2022/02/08 11:01:48;;;;;;;23.70;16.80;;;;;;;;;;4959416;28;20569;-72
2022/02/08 11:04:21;;;;;;;24.90;15.40;;;;;;;;;;4942291;28;20758;-73
2022/02/08 11:06:54;;;;;;;26.57;15.77;;;;;;;;;;4989062;28;20234;-72
2022/02/08 11:12:21;;;;;;;23.60;15.57;;;;;;;;;;4958018;28;20236;-72
2022/02/08 11:15:24;;;;;;;24.60;14.53;;;;;;;;;;4955344;28;20218;-73
2022/02/08 11:20:41;;;;;;;23.77;15.10;;;;;;;;;;4973824;28;20252;-73
2022/02/08 11:23:23;;;;;;;21.73;15.23;;;;;;;;;;4959528;28;20236;-73
2022/02/08 11:25:53;;;;;;;18.70;13.33;;;;;;;;;;4974101;28;20716;-74
2022/02/08 11:28:30;;;;;;;20.63;15.17;;;;;;;;;;4973541;28;20700;-73
2022/02/08 11:31:16;;;;;;;22.30;15.33;;;;;;;;;;4956818;28;20253;-74
2022/02/08 11:47:22;;;;;;;17.47;12.87;;;;;;;;;;4972366;28;20226;-73
2022/02/08 11:52:55;;;;;;;17.13;12.17;;;;;;;;;;4956876;28;20222;-74
2022/02/08 11:55:27;;;;;;;19.13;11.50;;;;;;;;;;4979195;28;20283;-73
2022/02/08 11:58:11;;;;;;;16.63;10.33;;;;;;;;;;4938496;28;20234;-72
2022/02/08 12:00:44;;;;;;;13.60;10.17;;;;;;;;;;4952726;28;20222;-73
2022/02/08 12:03:41;;;;;;;17.57;9.97;;;;;;;;;;4969687;28;20223;-74
2022/02/08 12:06:29;;;;;;;19.07;10.87;;;;;;;;;;5000510;28;20253;-73
2022/02/08 12:08:59;;;;;;;16.67;9.40;;;;;;;;;;4972535;28;20233;-74
2022/02/08 12:11:53;;;;;;;15.27;9.60;;;;;;;;;;4970764;28;20317;-76
2022/02/08 12:33:30;;;;;;;13.93;9.07;;;;;;;;;;4937954;28;20305;-74
2022/02/08 12:50:37;;;;;;;14.93;8.20;;;;;;;;;;4959300;28;20368;-72
2022/02/08 12:53:37;;;;;;;13.00;7.97;;;;;;;;;;4971946;28;20230;-73
2022/02/08 12:56:10;;;;;;;11.87;7.57;;;;;;;;;;4972620;28;20297;-73
2022/02/08 13:02:06;;;;;;;10.77;7.57;;;;;;;;;;4971564;28;20222;-74
2022/02/08 14:02:19;;;;;;;16.13;8.10;;;;;;;;;;4983041;28;20232;-74
2022/02/08 14:05:29;;;;;;;12.90;7.27;;;;;;;;;;5001107;28;20220;-74
2022/02/08 14:07:46;;;;;;;19.57;7.87;;;;;;;;;;4969739;28;20609;-75
2022/02/08 14:13:12;;;;;;;13.17;6.63;;;;;;;;;;4978529;28;20249;-72
2022/02/08 14:15:48;;;;;;;13.53;7.43;;;;;;;;;;4968050;28;20320;-72
2022/02/08 14:18:41;;;;;;;15.57;7.43;;;;;;;;;;4970592;28;20246;-73
2022/02/08 14:23:57;;;;;;;14.00;6.23;;;;;;;;;;4939889;28;20230;-74
2022/02/08 14:32:16;;;;;;;12.87;5.80;;;;;;;;;;4956022;28;20236;-72
2022/02/08 14:35:14;;;;;;;11.30;5.93;;;;;;;;;;4964048;28;20708;-72
2022/02/08 15:00:12;;;;;;;9.57;5.03;;;;;;;;;;4975012;28;20221;-73
2022/02/08 15:07:54;;;;;;;9.30;5.17;;;;;;;;;;4972546;28;20317;-71
2022/02/08 15:10:19;;;;;;;8.87;5.67;;;;;;;;;;4961546;28;20602;-74
2022/02/08 15:12:51;;;;;;;10.47;5.53;;;;;;;;;;4981338;28;20222;-72
2022/02/08 15:15:27;;;;;;;9.37;5.63;;;;;;;;;;4972156;28;20214;-73
2022/02/08 15:17:57;;;;;;;12.50;6.07;;;;;;;;;;4971962;28;20214;-73
2022/02/08 15:20:26;;;;;;;8.93;5.90;;;;;;;;;;4957495;28;20225;-71
2022/02/08 15:22:58;;;;;;;10.77;5.97;;;;;;;;;;4956486;28;20211;-72
2022/02/08 15:25:25;;;;;;;9.00;6.13;;;;;;;;;;4970898;28;20218;-73
2022/02/08 15:27:50;;;;;;;7.97;5.90;;;;;;;;;;4974128;28;20230;-72
2022/02/08 15:30:16;;;;;;;7.63;5.97;;;;;;;;;;4966766;28;20238;-72
2022/02/08 15:32:41;;;;;;;8.53;5.60;;;;;;;;;;4953180;28;20309;-73
2022/02/08 15:35:08;;;;;;;12.03;6.07;;;;;;;;;;4965546;28;20214;-72
2022/02/08 15:37:35;;;;;;;7.73;6.10;;;;;;;;;;4952945;28;20584;-72
2022/02/08 15:40:09;;;;;;;8.87;6.67;;;;;;;;;;4965150;28;20227;-73
2022/02/08 15:42:39;;;;;;;8.40;6.40;;;;;;;;;;4957779;28;20615;-71
2022/02/08 15:45:20;;;;;;;6.80;6.13;;;;;;;;;;4951032;28;20289;-72
2022/02/08 15:47:46;;;;;;;7.83;6.20;;;;;;;;;;4973901;28;20237;-72
2022/02/08 15:50:18;;;;;;;10.27;5.60;;;;;;;;;;4972589;28;20229;-71
2022/02/08 15:55:33;;;;;;;7.70;6.90;;;;;;;;;;4945372;28;20250;-72
2022/02/08 16:08:55;;;;;;;8.43;7.57;;;;;;;;;;4972338;28;20246;-72
2022/02/08 16:17:00;;;;;;;8.67;7.87;;;;;;;;;;4970403;28;20210;-71
2022/02/08 16:46:12;;;;;;;12.13;10.93;;;;;;;;;;4971702;28;20301;-73
2022/02/08 16:59:33;;;;;;;12.43;11.20;;;;;;;;;;4976561;28;20230;-72
2022/02/08 17:02:02;;;;;;;12.93;11.73;;;;;;;;;;4955833;28;20233;-74
2022/02/08 17:04:27;;;;;;;15.20;13.63;;;;;;;;;;4972833;28;20358;-73
2022/02/08 17:06:55;;;;;;;13.80;11.43;;;;;;;;;;4969155;28;20261;-73
2022/02/08 17:09:35;;;;;;;14.37;12.77;;;;;;;;;;4986247;28;20246;-74
2022/02/08 17:12:57;;;;;;;14.80;13.30;;;;;;;;;;4970416;28;20222;-71
2022/02/08 17:45:34;;;;;;;20.20;14.87;;;;;;;;;;4970165;28;20236;-72
2022/02/08 17:47:59;;;;;;;17.83;15.93;;;;;;;;;;4959123;28;20230;-72
2022/02/08 17:50:25;;;;;;;17.83;16.07;;;;;;;;;;4970857;28;20222;-71
2022/02/08 17:52:51;;;;;;;19.27;16.23;;;;;;;;;;4954412;28;20237;-73
2022/02/08 17:55:17;;;;;;;17.97;15.73;;;;;;;;;;4966481;28;20621;-71
2022/02/08 17:57:42;;;;;;;18.37;16.10;;;;;;;;;;4970729;28;20221;-72
2022/02/08 18:00:13;;;;;;;18.63;16.53;;;;;;;;;;4953254;28;20308;-72
2022/02/08 18:02:43;;;;;;;23.13;18.27;;;;;;;;;;4970409;28;20217;-73
2022/02/08 18:05:12;;;;;;;18.50;15.90;;;;;;;;;;4952739;28;20218;-73
2022/02/08 18:07:42;;;;;;;17.37;15.57;;;;;;;;;;4932036;28;20217;-72
2022/02/08 18:10:11;;;;;;;16.80;14.93;;;;;;;;;;4954661;28;20222;-71
2022/02/08 18:12:41;;;;;;;18.63;15.20;;;;;;;;;;4977730;28;20226;-72
2022/02/08 18:15:11;;;;;;;16.67;15.00;;;;;;;;;;4970212;28;20357;-71
2022/02/08 18:17:46;;;;;;;16.43;14.83;;;;;;;;;;4970748;28;20221;-71
2022/02/08 18:20:28;;;;;;;16.87;13.87;;;;;;;;;;4940071;28;20308;-72
2022/02/08 19:22:02;;;;;;;12.00;10.80;;;;;;;;;;4974464;28;20233;-71
2022/02/08 19:24:29;;;;;;;11.83;10.63;;;;;;;;;;4972604;28;20264;-71
2022/02/08 19:26:57;;;;;;;11.80;10.53;;;;;;;;;;4974480;28;20273;-74
2022/02/08 19:29:23;;;;;;;11.83;10.63;;;;;;;;;;4958172;28;20708;-72
2022/02/08 19:31:54;;;;;;;10.53;9.43;;;;;;;;;;4972207;28;20328;-72
2022/02/08 19:34:19;;;;;;;10.53;9.53;;;;;;;;;;4974329;28;20222;-73
2022/02/08 19:36:45;;;;;;;9.63;8.73;;;;;;;;;;4931418;28;20317;-72
2022/02/08 19:39:14;;;;;;;10.60;9.23;;;;;;;;;;4957322;28;20229;-72
2022/02/08 19:41:39;;;;;;;10.17;9.20;;;;;;;;;;4973164;28;20313;-73
2022/02/08 19:44:08;;;;;;;10.37;9.37;;;;;;;;;;4956467;28;20218;-72
2022/02/08 19:46:37;;;;;;;10.70;9.70;;;;;;;;;;4972457;28;20252;-71
2022/02/08 19:49:03;;;;;;;10.73;9.60;;;;;;;;;;4940078;28;20240;-71
2022/02/08 19:51:28;;;;;;;10.83;9.80;;;;;;;;;;4973371;28;20249;-72
2022/02/08 19:53:57;;;;;;;11.23;10.10;;;;;;;;;;4941043;28;20234;-72
2022/02/08 19:56:29;;;;;;;12.20;10.97;;;;;;;;;;4973891;28;20245;-71
2022/02/08 19:58:59;;;;;;;11.50;10.30;;;;;;;;;;4956733;28;20302;-70
2022/02/08 20:01:32;;;;;;;12.53;9.43;;;;;;;;;;4965356;28;20313;-76
2022/02/08 20:06:28;;;;;;;11.40;10.30;;;;;;;;;;4966633;28;20234;-72
2022/02/08 20:08:56;;;;;;;11.20;9.83;;;;;;;;;;4949950;28;20266;-73
2022/02/08 20:11:28;;;;;;;11.57;10.37;;;;;;;;;;4970624;28;20218;-73
2022/02/08 20:13:57;;;;;;;11.43;10.30;;;;;;;;;;4972262;28;20230;-72
2022/02/08 20:16:29;;;;;;;11.40;10.30;;;;;;;;;;4963772;28;20626;-73
2022/02/08 20:19:01;;;;;;;11.80;10.47;;;;;;;;;;4988515;28;20308;-72
2022/02/08 20:21:29;;;;;;;12.77;11.43;;;;;;;;;;4974266;28;20244;-72
2022/02/08 20:23:59;;;;;;;13.10;11.70;;;;;;;;;;4953713;28;20341;-74
2022/02/08 20:26:30;;;;;;;12.60;11.40;;;;;;;;;;4921353;28;20317;-74
2022/02/08 20:29:01;;;;;;;14.00;11.97;;;;;;;;;;4944621;28;20229;-72
2022/02/08 20:31:29;;;;;;;14.47;12.43;;;;;;;;;;4970441;28;20233;-72
2022/02/08 20:33:55;;;;;;;13.03;11.63;;;;;;;;;;4973329;28;20248;-72
2022/02/08 20:36:23;;;;;;;14.07;12.67;;;;;;;;;;4971910;28;20692;-73
2022/02/08 20:38:51;;;;;;;16.27;13.93;;;;;;;;;;4956727;28;20683;-73
2022/02/08 20:41:20;;;;;;;15.33;13.80;;;;;;;;;;4970663;28;20227;-72
2022/02/08 20:43:48;;;;;;;15.23;13.67;;;;;;;;;;4955837;28;20379;-72
2022/02/08 20:46:15;;;;;;;16.00;14.30;;;;;;;;;;4971098;28;20313;-73
2022/02/08 20:48:46;;;;;;;16.37;14.77;;;;;;;;;;4957352;28;20230;-72
2022/02/08 20:51:15;;;;;;;14.87;13.23;;;;;;;;;;4957213;28;20230;-73
2022/02/08 20:53:54;;;;;;;16.60;14.93;;;;;;;;;;4957563;28;20704;-72
2022/02/08 20:59:06;;;;;;;16.60;15.07;;;;;;;;;;4973691;28;20229;-70
2022/02/08 21:01:35;;;;;;;17.73;15.93;;;;;;;;;;4952478;28;20246;-73
2022/02/08 21:04:08;;;;;;;17.77;16.00;;;;;;;;;;4971722;28;20226;-72
2022/02/08 21:06:38;;;;;;;18.60;16.80;;;;;;;;;;4947254;28;20221;-72
2022/02/08 21:09:06;;;;;;;18.50;16.70;;;;;;;;;;4955015;28;20222;-72
2022/02/08 21:11:36;;;;;;;18.43;16.63;;;;;;;;;;4964873;28;20226;-73
2022/02/08 21:14:13;;;;;;;20.43;18.27;;;;;;;;;;4971893;28;20281;-72
2022/02/08 21:16:44;;;;;;;19.23;17.23;;;;;;;;;;4971901;28;20225;-72
2022/02/08 21:19:22;;;;;;;21.53;19.20;;;;;;;;;;4971817;28;20734;-73
2022/02/08 21:21:51;;;;;;;20.13;17.57;;;;;;;;;;4955809;28;20249;-73
2022/02/08 21:24:21;;;;;;;20.00;18.00;;;;;;;;;;4973081;28;20230;-71
2022/02/08 21:27:00;;;;;;;17.13;15.43;;;;;;;;;;4956131;28;20724;-72
2022/02/08 21:29:42;;;;;;;18.27;16.57;;;;;;;;;;4971670;28;20253;-72
2022/02/08 21:51:18;;;;;;;17.63;15.93;;;;;;;;;;4960607;28;20791;-73
2022/02/08 21:53:47;;;;;;;18.80;17.10;;;;;;;;;;4977532;28;20748;-72
2022/02/08 21:56:16;;;;;;;19.13;17.23;;;;;;;;;;4959820;28;20222;-73
2022/02/08 21:58:43;;;;;;;18.90;17.00;;;;;;;;;;4973344;28;20700;-73
2022/02/08 22:01:11;;;;;;;18.33;16.53;;;;;;;;;;4970918;28;20648;-72
2022/02/08 22:03:39;;;;;;;17.90;16.00;;;;;;;;;;4971909;28;20242;-71
2022/02/08 22:06:07;;;;;;;20.10;18.13;;;;;;;;;;4931354;28;20724;-72
2022/02/08 22:08:39;;;;;;;20.23;18.17;;;;;;;;;;4940416;28;20282;-71
2022/02/08 22:19:57;;;;;;;20.83;18.63;;;;;;;;;;4968674;28;20229;-73
2022/02/08 22:22:13;;;;;;;21.10;18.90;;;;;;;;;;4970198;28;20222;-72
2022/02/08 22:24:51;;;;;;;21.13;19.13;;;;;;;;;;4971783;28;20605;-73
2022/02/08 22:32:17;;;;;;;20.87;18.87;;;;;;;;;;4970091;28;20232;-71
2022/02/08 22:39:50;;;;;;;23.27;20.97;;;;;;;;;;4971878;28;20234;-71